Terminal Aerodrome Forecast
Issued by NWS

Home | Current Version | Previous Version | Text Only | Print | Product List | Glossary On
Versions: 1 2 3 4 5 6 7 8 9 10 11 12 13 14 15 16 17 18 19 20 21 22 23 24 25 26 27 28 29
000
FTAK31 PAFA 270534
TAFAUN
TAF
PAUN 270534Z 2706/2806 06011KT P6SM OVC070
     FM270900 13007KT P6SM SCT050 BKN100
     FM280300 22005KT P6SM OVC050
      AMD NOT SKED=

USA.gov is the U.S. government's official web portal to all federal, state and local government web resources and services.